createdAt,value
2017-09-24T00:00:24.810Z,19.60
2017-09-24T00:02:52.475Z,19.60
2017-09-24T00:05:20.324Z,17.37
2017-09-24T00:07:48.800Z,18.43
2017-09-24T00:10:17.283Z,17.93
2017-09-24T00:12:45.854Z,17.70
2017-09-24T00:15:14.478Z,17.10
2017-09-24T00:17:42.142Z,18.60
2017-09-24T00:20:09.964Z,17.03
2017-09-24T00:22:38.265Z,16.90
2017-09-24T00:25:05.833Z,17.07
2017-09-24T00:27:33.375Z,16.10
2017-09-24T00:30:01.713Z,17.53
2017-09-24T00:32:29.255Z,18.47
2017-09-24T00:34:56.822Z,20.63
2017-09-24T00:37:24.359Z,27.07
2017-09-24T00:39:51.887Z,29.43
2017-09-24T00:42:20.194Z,24.87
2017-09-24T00:44:47.726Z,27.07
2017-09-24T00:47:16.104Z,29.30
2017-09-24T00:49:44.412Z,26.50
2017-09-24T00:52:11.942Z,26.53
2017-09-24T00:54:40.250Z,24.87
2017-09-24T00:57:07.811Z,22.50
2017-09-24T00:59:35.354Z,23.80
2017-09-24T01:02:03.674Z,17.43
2017-09-24T01:04:31.202Z,19.27
2017-09-24T01:06:58.830Z,19.10
2017-09-24T01:09:26.368Z,19.53
2017-09-24T01:11:53.930Z,17.53
2017-09-24T01:14:21.464Z,16.67
2017-09-24T01:16:49.038Z,16.10
2017-09-24T01:19:16.570Z,13.87
2017-09-24T01:21:45.214Z,14.70
2017-09-24T01:24:12.758Z,15.23
2017-09-24T01:26:40.291Z,12.50
2017-09-24T01:29:07.822Z,14.27
2017-09-24T01:31:36.128Z,14.03
2017-09-24T01:34:03.692Z,18.10
2017-09-24T01:36:31.223Z,14.67
2017-09-24T01:38:59.542Z,15.23
2017-09-24T01:41:27.079Z,14.63
2017-09-24T01:43:54.637Z,15.10
2017-09-24T01:46:22.166Z,14.10
2017-09-24T01:48:50.490Z,14.23
2017-09-24T01:51:18.027Z,14.27
2017-09-24T01:53:45.586Z,14.33
2017-09-24T01:56:13.907Z,13.57
2017-09-24T01:58:41.439Z,15.00
2017-09-24T02:01:08.977Z,14.57
2017-09-24T02:03:37.276Z,13.87
2017-09-24T02:06:04.854Z,13.40
2017-09-24T02:08:32.387Z,12.80
2017-09-24T02:10:59.943Z,12.60
2017-09-24T02:13:28.246Z,12.10
2017-09-24T02:15:55.811Z,12.20
2017-09-24T02:18:23.346Z,12.30
2017-09-24T02:20:50.878Z,12.40
2017-09-24T02:23:18.425Z,11.20
2017-09-24T02:25:45.987Z,12.40
2017-09-24T02:28:13.601Z,12.30
2017-09-24T02:30:41.137Z,12.47
2017-09-24T02:33:08.682Z,12.70
2017-09-24T02:35:36.216Z,11.10
2017-09-24T02:38:03.768Z,11.80
2017-09-24T02:40:31.310Z,11.60
2017-09-24T02:42:58.861Z,11.53
2017-09-24T02:45:26.395Z,11.40
2017-09-24T02:47:54.686Z,12.50
2017-09-24T02:50:28.950Z,11.60
2017-09-24T02:52:56.486Z,10.90
2017-09-24T02:55:24.019Z,11.57
2017-09-24T02:57:52.318Z,11.90
2017-09-24T03:00:19.854Z,12.40
2017-09-24T03:02:48.182Z,11.80
2017-09-24T03:05:15.720Z,11.23
2017-09-24T03:07:43.254Z,11.93
2017-09-24T03:10:11.555Z,11.27
2017-09-24T03:12:39.099Z,10.90
2017-09-24T03:15:07.399Z,11.53
2017-09-24T03:17:34.938Z,12.50
2017-09-24T03:20:02.470Z,11.13
2017-09-24T03:22:30.011Z,12.53
2017-09-24T03:24:57.548Z,10.50
2017-09-24T03:27:25.078Z,11.23
2017-09-24T03:29:53.403Z,11.20
2017-09-24T03:32:20.941Z,13.23
2017-09-24T03:34:48.537Z,11.07
2017-09-24T03:37:16.070Z,12.40
2017-09-24T03:39:43.614Z,11.80
2017-09-24T03:42:11.151Z,11.40
2017-09-24T03:44:39.447Z,11.40
2017-09-24T03:47:06.980Z,11.67
2017-09-24T03:49:35.279Z,12.27
2017-09-24T03:52:02.812Z,10.83
2017-09-24T03:54:30.347Z,12.27
2017-09-24T03:56:57.887Z,11.10
2017-09-24T03:59:25.422Z,12.07
2017-09-24T04:01:52.954Z,12.00
2017-09-24T04:04:20.492Z,11.93
2017-09-24T04:06:48.073Z,11.60
2017-09-24T04:09:15.602Z,10.90
2017-09-24T04:11:43.974Z,12.53
2017-09-24T04:14:11.502Z,13.13
2017-09-24T04:16:39.082Z,11.77
2017-09-24T04:19:06.675Z,12.53
2017-09-24T04:21:34.207Z,12.53
2017-09-24T04:24:01.749Z,12.50
2017-09-24T04:26:29.283Z,11.93
2017-09-24T04:28:57.583Z,11.90
2017-09-24T04:31:25.130Z,15.47
2017-09-24T04:33:53.434Z,11.63
2017-09-24T04:36:20.968Z,13.07
2017-09-24T04:38:49.701Z,11.47
2017-09-24T04:41:17.230Z,10.93
2017-09-24T04:43:44.762Z,11.67
2017-09-24T04:46:13.283Z,10.83
2017-09-24T04:48:40.839Z,11.23
2017-09-24T04:51:08.371Z,11.90
2017-09-24T04:53:36.693Z,12.13
2017-09-24T04:56:04.232Z,11.40
2017-09-24T04:58:31.795Z,12.27
2017-09-24T05:00:59.331Z,12.30
2017-09-24T05:03:27.651Z,14.10
2017-09-24T05:05:55.182Z,13.67
2017-09-24T05:08:23.514Z,11.90
2017-09-24T05:10:51.058Z,12.70
2017-09-24T05:13:18.594Z,12.07
2017-09-24T05:15:46.127Z,14.27
2017-09-24T05:18:14.568Z,14.60
2017-09-24T05:20:42.098Z,13.43
2017-09-24T05:23:09.636Z,15.13
2017-09-24T05:25:37.935Z,14.53
2017-09-24T05:28:05.467Z,14.30
2017-09-24T05:30:33.762Z,13.57
2017-09-24T05:33:02.060Z,12.47
2017-09-24T05:35:29.603Z,13.73
2017-09-24T05:37:57.138Z,12.87
2017-09-24T05:40:24.694Z,12.10
2017-09-24T05:42:52.245Z,13.47
2017-09-24T05:45:19.806Z,11.13
2017-09-24T05:47:47.333Z,11.67
2017-09-24T05:50:14.890Z,12.07
2017-09-24T05:52:42.434Z,12.20
2017-09-24T05:55:09.992Z,11.17
2017-09-24T05:57:37.522Z,11.73
2017-09-24T06:00:05.046Z,12.00
2017-09-24T06:02:32.574Z,12.30
2017-09-24T06:05:00.110Z,13.33
2017-09-24T06:07:28.419Z,12.17
2017-09-24T06:09:55.951Z,12.43
2017-09-24T06:12:24.278Z,12.40
2017-09-24T06:14:51.820Z,16.77
2017-09-24T06:17:19.374Z,14.00
2017-09-24T06:19:46.906Z,12.30
2017-09-24T06:22:15.232Z,14.53
2017-09-24T06:24:42.783Z,12.97
2017-09-24T06:27:10.356Z,13.60
2017-09-24T06:29:37.939Z,12.40
2017-09-24T06:32:05.474Z,13.93
2017-09-24T06:34:33.006Z,12.73
2017-09-24T06:37:00.546Z,12.67
2017-09-24T06:39:28.895Z,13.73
2017-09-24T06:41:56.427Z,14.40
2017-09-24T06:44:23.988Z,12.70
2017-09-24T06:46:51.524Z,13.93
2017-09-24T06:49:19.842Z,13.30
2017-09-24T06:51:47.375Z,15.30
2017-09-24T06:54:14.930Z,12.47
2017-09-24T06:56:42.466Z,14.40
2017-09-24T06:59:10.794Z,14.97
2017-09-24T07:01:38.326Z,14.73
2017-09-24T07:04:05.861Z,13.10
2017-09-24T07:06:34.174Z,14.50
2017-09-24T07:09:01.712Z,13.90
2017-09-24T07:11:30.015Z,13.60
2017-09-24T07:13:57.594Z,13.93
2017-09-24T07:16:25.146Z,13.47
2017-09-24T07:18:52.683Z,13.30
2017-09-24T07:21:20.240Z,14.37
2017-09-24T07:23:47.769Z,13.57
2017-09-24T07:26:15.324Z,12.90
2017-09-24T07:28:42.893Z,13.00
2017-09-24T07:31:10.454Z,13.60
2017-09-24T07:33:37.988Z,13.57
2017-09-24T07:36:05.523Z,14.60
2017-09-24T07:38:33.057Z,17.03
2017-09-24T07:41:00.602Z,15.23
2017-09-24T07:43:28.934Z,13.33
2017-09-24T07:45:56.466Z,13.20
2017-09-24T07:48:24.067Z,13.40
2017-09-24T07:50:51.595Z,14.43
2017-09-24T07:53:19.175Z,15.00
2017-09-24T07:55:46.703Z,12.67
2017-09-24T07:58:14.242Z,12.87
2017-09-24T08:00:41.795Z,14.47
2017-09-24T08:03:09.330Z,17.17
2017-09-24T08:05:36.899Z,22.30
2017-09-24T08:08:04.435Z,18.53
2017-09-24T08:10:31.961Z,14.17
2017-09-24T08:13:00.258Z,15.20
2017-09-24T08:15:27.787Z,14.40
2017-09-24T08:17:57.002Z,15.90
2017-09-24T08:20:25.296Z,14.97
2017-09-24T08:22:52.837Z,14.50
2017-09-24T08:25:21.159Z,15.83
2017-09-24T08:27:54.668Z,17.60
2017-09-24T08:30:22.255Z,15.03
2017-09-24T08:32:49.795Z,15.90
2017-09-24T08:35:17.354Z,14.70
2017-09-24T08:37:44.899Z,15.83
2017-09-24T08:40:12.458Z,14.63
2017-09-24T08:42:40.031Z,16.00
2017-09-24T08:45:07.571Z,15.13
2017-09-24T08:47:35.111Z,16.50
2017-09-24T08:50:03.513Z,15.70
2017-09-24T08:52:31.090Z,15.13
2017-09-24T08:54:58.642Z,14.40
2017-09-24T08:57:26.183Z,14.53
2017-09-24T08:59:53.751Z,15.97
2017-09-24T09:02:21.311Z,15.97
2017-09-24T09:04:48.847Z,15.00
2017-09-24T09:07:17.160Z,16.10
2017-09-24T09:09:44.702Z,13.97
2017-09-24T09:12:12.251Z,13.70
2017-09-24T09:14:39.803Z,13.30
2017-09-24T09:17:08.162Z,14.17
2017-09-24T09:19:35.698Z,13.50
2017-09-24T09:22:03.263Z,13.17
2017-09-24T09:24:30.799Z,14.10
2017-09-24T09:26:58.334Z,12.30
2017-09-24T09:29:26.647Z,13.40
2017-09-24T09:31:54.204Z,13.53
2017-09-24T09:34:33.369Z,13.70
2017-09-24T09:37:00.919Z,14.57
2017-09-24T09:39:28.450Z,12.93
2017-09-24T09:41:56.760Z,13.57
2017-09-24T09:44:36.008Z,14.40
2017-09-24T09:47:15.289Z,13.63
2017-09-24T09:49:43.595Z,12.60
2017-09-24T09:52:11.130Z,12.63
2017-09-24T09:54:39.480Z,11.93
2017-09-24T09:57:07.019Z,11.90
2017-09-24T09:59:34.586Z,12.03
2017-09-24T10:02:02.131Z,36.93
2017-09-24T10:04:29.675Z,60.47
2017-09-24T10:07:09.045Z,12.80
2017-09-24T10:09:48.274Z,20.67
2017-09-24T10:12:15.807Z,15.27
2017-09-24T10:14:43.338Z,10.87
2017-09-24T10:17:11.634Z,12.63
2017-09-24T10:19:39.169Z,12.17
2017-09-24T10:22:07.471Z,12.50
2017-09-24T10:24:35.026Z,10.27
2017-09-24T10:27:02.578Z,14.00
2017-09-24T10:29:30.873Z,10.80
2017-09-24T10:32:04.514Z,11.17
2017-09-24T10:34:32.046Z,11.07
2017-09-24T10:36:59.577Z,11.07
2017-09-24T10:39:27.892Z,10.30
2017-09-24T10:41:55.481Z,11.17
2017-09-24T10:44:23.014Z,11.43
2017-09-24T10:46:50.553Z,11.07
2017-09-24T10:49:18.082Z,10.60
2017-09-24T10:51:45.619Z,11.40
2017-09-24T10:54:13.154Z,11.60
2017-09-24T10:56:40.686Z,11.47
2017-09-24T10:59:08.214Z,11.23
2017-09-24T11:01:35.747Z,11.10
2017-09-24T11:04:03.279Z,10.97
2017-09-24T11:06:30.824Z,12.47
2017-09-24T11:08:59.143Z,10.90
2017-09-24T11:11:26.678Z,11.70
2017-09-24T11:13:54.235Z,11.70
2017-09-24T11:16:21.912Z,11.40
2017-09-24T11:18:49.442Z,10.60
2017-09-24T11:21:17.739Z,11.27
2017-09-24T11:23:45.275Z,10.43
2017-09-24T11:26:20.335Z,10.20
2017-09-24T11:28:47.873Z,9.93
2017-09-24T11:31:16.198Z,9.93
2017-09-24T11:33:43.732Z,9.07
2017-09-24T11:36:11.296Z,10.50
2017-09-24T11:38:38.826Z,9.37
2017-09-24T11:41:07.149Z,10.80
2017-09-24T11:43:34.678Z,9.40
2017-09-24T11:46:02.995Z,10.10
2017-09-24T11:48:30.567Z,9.00
2017-09-24T11:50:58.123Z,9.57
2017-09-24T11:53:25.653Z,9.73
2017-09-24T11:55:53.214Z,9.10
2017-09-24T11:58:20.791Z,8.93
2017-09-24T12:00:48.364Z,9.10
2017-09-24T12:03:15.890Z,9.70
2017-09-24T12:05:43.417Z,10.00
2017-09-24T12:08:11.104Z,10.50
2017-09-24T12:10:39.762Z,9.60
2017-09-24T12:13:07.311Z,9.93
2017-09-24T12:15:34.838Z,9.83
2017-09-24T12:18:02.389Z,9.57
2017-09-24T12:20:29.911Z,9.07
2017-09-24T12:22:57.515Z,9.20
2017-09-24T12:25:25.128Z,9.70
2017-09-24T12:27:52.697Z,9.73
2017-09-24T12:30:20.334Z,10.47
2017-09-24T12:32:47.906Z,9.57
2017-09-24T12:35:16.362Z,9.73
2017-09-24T12:37:43.966Z,10.67
2017-09-24T12:40:11.502Z,9.47
2017-09-24T12:42:39.047Z,10.20
2017-09-24T12:45:06.590Z,10.50
2017-09-24T12:47:34.896Z,10.90
2017-09-24T12:50:02.438Z,9.70
2017-09-24T12:52:30.825Z,9.30
2017-09-24T12:54:58.384Z,9.80
2017-09-24T12:57:25.950Z,10.63
2017-09-24T12:59:53.498Z,10.40
2017-09-24T13:02:21.800Z,10.23
2017-09-24T13:04:49.354Z,10.63
2017-09-24T13:07:16.888Z,11.00
2017-09-24T13:09:45.209Z,10.50
2017-09-24T13:12:12.738Z,11.97
2017-09-24T13:14:41.096Z,18.60
2017-09-24T13:17:08.636Z,11.10
2017-09-24T13:19:36.231Z,15.90
2017-09-24T13:22:04.553Z,15.40
2017-09-24T13:24:32.117Z,11.70
2017-09-24T13:27:00.484Z,11.00
2017-09-24T13:29:28.057Z,11.37
2017-09-24T13:31:55.591Z,15.23
2017-09-24T13:34:23.206Z,11.93
2017-09-24T13:36:50.751Z,24.20
2017-09-24T13:39:18.290Z,24.93
2017-09-24T13:41:45.868Z,10.90
2017-09-24T13:44:13.397Z,12.20
2017-09-24T13:46:40.971Z,11.10
2017-09-24T13:49:08.510Z,9.63
2017-09-24T13:51:36.054Z,10.10
2017-09-24T13:54:03.622Z,10.50
2017-09-24T13:56:31.208Z,9.50
2017-09-24T13:58:58.739Z,9.20
2017-09-24T14:01:26.270Z,8.67
2017-09-24T14:03:53.810Z,9.00
2017-09-24T14:06:21.361Z,8.10
2017-09-24T14:08:48.889Z,8.73
2017-09-24T14:11:17.182Z,8.57
2017-09-24T14:13:44.749Z,7.93
2017-09-24T14:16:12.277Z,8.50
2017-09-24T14:18:40.634Z,9.10
2017-09-24T14:21:08.193Z,8.47
2017-09-24T14:23:35.743Z,7.47
2017-09-24T14:26:03.290Z,6.70
2017-09-24T14:28:30.829Z,7.53
2017-09-24T14:30:58.360Z,8.07
2017-09-24T14:33:26.662Z,6.60
2017-09-24T14:35:54.437Z,7.33
2017-09-24T14:38:21.970Z,7.03
2017-09-24T14:40:50.256Z,7.33
2017-09-24T14:43:17.814Z,6.53
2017-09-24T14:45:45.341Z,7.90
2017-09-24T14:48:12.867Z,7.00
2017-09-24T14:50:40.393Z,7.20
2017-09-24T14:53:07.938Z,6.80
2017-09-24T14:55:36.244Z,6.90
2017-09-24T14:58:03.771Z,6.73
2017-09-24T15:00:32.157Z,5.90
2017-09-24T15:03:00.447Z,6.63
2017-09-24T15:05:28.034Z,5.50
2017-09-24T15:07:55.561Z,6.67
2017-09-24T15:10:23.893Z,6.93
2017-09-24T15:12:51.431Z,6.97
2017-09-24T15:15:18.953Z,6.70
2017-09-24T15:17:47.253Z,7.37
2017-09-24T15:20:14.809Z,7.70
2017-09-24T15:22:42.383Z,7.93
2017-09-24T15:25:10.158Z,8.87
2017-09-24T15:27:37.676Z,9.00
2017-09-24T15:30:05.997Z,6.93
2017-09-24T15:32:33.765Z,7.77
2017-09-24T15:35:01.304Z,8.20
2017-09-24T15:37:29.125Z,8.20
2017-09-24T15:39:56.677Z,8.50
2017-09-24T15:42:24.280Z,8.80
2017-09-24T15:44:52.577Z,8.73
2017-09-24T15:47:20.169Z,8.77
2017-09-24T15:49:47.713Z,8.87
2017-09-24T15:52:15.258Z,8.43
2017-09-24T15:54:42.839Z,9.00
2017-09-24T15:57:10.375Z,8.57
2017-09-24T15:59:37.972Z,8.10
2017-09-24T16:02:05.541Z,8.30
2017-09-24T16:04:33.486Z,9.13
2017-09-24T16:07:01.080Z,8.80
2017-09-24T16:09:28.600Z,8.43
2017-09-24T16:11:56.147Z,8.80
2017-09-24T16:14:23.721Z,9.00
2017-09-24T16:16:51.255Z,9.00
2017-09-24T16:19:19.581Z,9.40
2017-09-24T16:21:47.131Z,9.83
2017-09-24T16:24:14.706Z,10.00
2017-09-24T16:26:42.380Z,9.53
2017-09-24T16:29:09.936Z,9.10
2017-09-24T16:31:37.485Z,8.93
2017-09-24T16:34:05.027Z,9.60
2017-09-24T16:36:32.564Z,9.53
2017-09-24T16:39:00.900Z,9.80
2017-09-24T16:41:28.466Z,10.13
2017-09-24T16:43:56.243Z,9.50
2017-09-24T16:46:24.589Z,9.37
2017-09-24T16:48:52.159Z,9.90
2017-09-24T16:51:19.751Z,9.93
2017-09-24T16:53:47.309Z,8.83
2017-09-24T16:56:14.901Z,9.87
2017-09-24T16:58:42.434Z,10.70
2017-09-24T17:01:09.982Z,9.07
2017-09-24T17:03:37.521Z,10.00
2017-09-24T17:06:05.061Z,10.33
2017-09-24T17:08:32.871Z,11.93
2017-09-24T17:11:00.608Z,10.10
2017-09-24T17:13:28.181Z,12.30
2017-09-24T17:15:55.733Z,12.40
2017-09-24T17:18:23.347Z,12.30
2017-09-24T17:20:50.901Z,11.07
2017-09-24T17:23:19.241Z,11.13
2017-09-24T17:25:46.776Z,10.90
2017-09-24T17:28:14.342Z,11.23
2017-09-24T17:30:41.902Z,10.90
2017-09-24T17:33:09.530Z,11.27
2017-09-24T17:35:37.863Z,11.10
2017-09-24T17:38:05.425Z,10.87
2017-09-24T17:40:32.961Z,9.93
2017-09-24T17:43:00.509Z,10.17
2017-09-24T17:45:28.100Z,11.00
2017-09-24T17:47:55.698Z,12.40
2017-09-24T17:50:24.058Z,13.40
2017-09-24T17:52:51.594Z,12.57
2017-09-24T17:55:19.165Z,12.43
2017-09-24T17:57:46.720Z,12.60
2017-09-24T18:00:14.366Z,14.20
2017-09-24T18:02:41.880Z,11.40
2017-09-24T18:05:10.247Z,13.80
2017-09-24T18:07:37.801Z,13.37
2017-09-24T18:10:05.405Z,13.10
2017-09-24T18:12:33.047Z,14.13
2017-09-24T18:15:01.468Z,12.07
2017-09-24T18:17:29.009Z,12.90
2017-09-24T18:19:56.556Z,13.43
2017-09-24T18:22:24.910Z,13.20
2017-09-24T18:24:52.506Z,12.43
2017-09-24T18:27:20.077Z,12.93
2017-09-24T18:29:47.689Z,12.77
2017-09-24T18:32:15.256Z,13.83
2017-09-24T18:34:42.801Z,12.50
2017-09-24T18:37:10.373Z,13.80
2017-09-24T18:39:37.921Z,12.50
2017-09-24T18:42:05.457Z,13.53
2017-09-24T18:44:33.021Z,11.80
2017-09-24T18:47:00.586Z,14.03
2017-09-24T18:49:28.150Z,12.67
2017-09-24T18:51:55.711Z,12.50
2017-09-24T18:54:23.262Z,13.07
2017-09-24T18:56:50.800Z,13.07
2017-09-24T18:59:19.292Z,11.87
2017-09-24T19:01:46.825Z,13.03
2017-09-24T19:04:15.130Z,13.50
2017-09-24T19:06:42.692Z,13.37
2017-09-24T19:09:10.229Z,13.83
2017-09-24T19:11:38.527Z,13.50
2017-09-24T19:14:06.105Z,13.47
2017-09-24T19:16:33.637Z,15.43
2017-09-24T19:19:01.173Z,14.53
2017-09-24T19:21:29.512Z,12.97
2017-09-24T19:23:57.045Z,13.67
2017-09-24T19:26:24.593Z,13.20
2017-09-24T19:28:52.141Z,13.67
2017-09-24T19:31:20.433Z,15.13
2017-09-24T19:33:48.743Z,16.03
2017-09-24T19:36:16.307Z,13.90
2017-09-24T19:38:43.860Z,15.63
2017-09-24T19:41:11.427Z,16.30
2017-09-24T19:43:38.982Z,13.70
2017-09-24T19:46:06.562Z,17.43
2017-09-24T19:48:34.120Z,15.83
2017-09-24T19:51:01.690Z,17.33
2017-09-24T19:53:29.220Z,17.40
2017-09-24T19:55:56.753Z,16.97
2017-09-24T19:58:24.321Z,17.83
2017-09-24T20:00:51.857Z,16.67
2017-09-24T20:03:20.189Z,18.13
2017-09-24T20:05:47.723Z,16.00
2017-09-24T20:08:15.285Z,19.17
2017-09-24T20:10:42.853Z,17.13
2017-09-24T20:13:10.420Z,16.37
2017-09-24T20:15:37.972Z,18.50
2017-09-24T20:18:05.544Z,18.73
2017-09-24T20:20:33.321Z,18.57
2017-09-24T20:23:00.877Z,19.33
2017-09-24T20:25:28.422Z,17.53
2017-09-24T20:27:55.973Z,20.63
2017-09-24T20:30:23.525Z,20.47
2017-09-24T20:32:51.849Z,20.97
2017-09-24T20:35:20.179Z,21.90
2017-09-24T20:37:47.726Z,21.77
2017-09-24T20:40:15.264Z,20.60
2017-09-24T20:42:42.850Z,19.17
2017-09-24T20:45:10.386Z,20.60
2017-09-24T20:47:37.954Z,23.33
2017-09-24T20:50:05.719Z,22.77
2017-09-24T20:52:33.278Z,20.20
2017-09-24T20:55:00.828Z,18.97
2017-09-24T20:57:28.373Z,23.20
2017-09-24T20:59:55.912Z,20.70
2017-09-24T21:02:23.459Z,24.50
2017-09-24T21:04:51.009Z,21.47
2017-09-24T21:07:18.557Z,22.80
2017-09-24T21:09:46.198Z,24.50
2017-09-24T21:12:14.557Z,23.40
2017-09-24T21:14:42.116Z,25.00
2017-09-24T21:17:09.663Z,22.63
2017-09-24T21:19:37.216Z,24.43
2017-09-24T21:22:04.768Z,23.90
2017-09-24T21:24:32.297Z,24.90
2017-09-24T21:26:59.908Z,25.30
2017-09-24T21:29:27.441Z,24.03
2017-09-24T21:31:54.979Z,26.17
2017-09-24T21:34:22.510Z,23.63
2017-09-24T21:36:50.278Z,27.03
2017-09-24T21:39:18.118Z,26.73
2017-09-24T21:41:45.883Z,25.30
2017-09-24T21:44:13.446Z,27.53
2017-09-24T21:46:40.970Z,28.43
2017-09-24T21:49:09.315Z,28.77
2017-09-24T21:51:36.868Z,27.67
2017-09-24T21:54:04.413Z,26.63
2017-09-24T21:56:31.953Z,27.80
2017-09-24T21:58:59.509Z,26.77
2017-09-24T22:01:27.033Z,26.53
2017-09-24T22:03:54.567Z,27.03
2017-09-24T22:06:22.123Z,27.90
2017-09-24T22:08:49.665Z,30.30
2017-09-24T22:11:17.226Z,28.43
2017-09-24T22:13:44.761Z,27.73
2017-09-24T22:16:12.325Z,27.07
2017-09-24T22:18:39.874Z,27.33
2017-09-24T22:21:08.224Z,31.27
2017-09-24T22:23:35.748Z,27.90
2017-09-24T22:26:03.292Z,31.73
2017-09-24T22:28:30.829Z,28.70
2017-09-24T22:30:59.130Z,35.63
2017-09-24T22:33:26.679Z,29.00
2017-09-24T22:35:54.977Z,43.87
2017-09-24T22:38:22.529Z,35.87
2017-09-24T22:40:50.109Z,32.90
2017-09-24T22:43:17.718Z,35.40
2017-09-24T22:45:46.030Z,32.50
2017-09-24T22:48:13.594Z,29.80
2017-09-24T22:50:41.133Z,30.80
2017-09-24T22:53:08.718Z,30.03
2017-09-24T22:55:36.290Z,29.53
2017-09-24T22:58:03.822Z,30.77
2017-09-24T23:00:32.417Z,29.40
2017-09-24T23:02:59.941Z,27.43
2017-09-24T23:05:27.501Z,28.07
2017-09-24T23:07:55.058Z,30.03
2017-09-24T23:10:22.604Z,29.37
2017-09-24T23:12:50.142Z,32.30
2017-09-24T23:15:17.717Z,28.73
2017-09-24T23:17:45.262Z,31.27
2017-09-24T23:20:12.827Z,29.97
2017-09-24T23:22:40.372Z,31.30
2017-09-24T23:25:07.945Z,29.70
2017-09-24T23:27:35.489Z,30.80
2017-09-24T23:30:03.033Z,28.57
2017-09-24T23:32:30.565Z,29.73
2017-09-24T23:34:58.114Z,29.53
2017-09-24T23:37:25.643Z,27.87
2017-09-24T23:39:53.190Z,28.37
2017-09-24T23:42:20.738Z,29.47
2017-09-24T23:44:48.274Z,29.63
2017-09-24T23:47:16.817Z,29.17
2017-09-24T23:49:44.550Z,28.70
2017-09-24T23:52:12.114Z,31.27
2017-09-24T23:54:39.645Z,32.47
2017-09-24T23:57:07.966Z,29.27
2017-09-24T23:59:35.497Z,32.40
